Time;durP1;ratioP1;P1;durP2;ratioP2;P2;SDS_P1;SDS_P2;PMS_P1;PMS_P2;Temp;Humidity;BMP_temperature;BMP_pressure;BME280_temperature;BME280_humidity;BME280_pressure;Samples;Min_cycle;Max_cycle;Signal;HPM_P1;HPM_P2
2021/04/28 00:00:34;;;;;;;20.92;13.98;;;8.60;99.40;;;8.30;73.94;100187.25;4087751;29;20024;-69
2021/04/28 00:02:36;;;;;;;26.08;15.23;;;8.50;99.40;;;8.30;74.05;100187.25;4087544;29;20039;-69
2021/04/28 00:04:37;;;;;;;20.45;14.85;;;8.50;99.90;;;8.18;74.30;100191.88;4101865;29;20067;-69
2021/04/28 00:06:38;;;;;;;19.27;14.45;;;8.40;99.90;;;8.22;74.51;100189.75;4102557;29;20027;-69
2021/04/28 00:08:39;;;;;;;24.02;15.15;;;8.40;99.90;;;8.24;73.92;100179.94;4103670;28;20028;-69
2021/04/28 00:10:41;;;;;;;21.95;14.82;;;8.40;99.90;;;8.30;73.79;100180.16;4104987;29;20042;-69
2021/04/28 00:12:43;;;;;;;23.65;15.45;;;8.40;99.90;;;8.24;73.27;100187.81;4090418;29;20503;-69
2021/04/28 00:14:44;;;;;;;19.60;13.70;;;8.40;99.90;;;8.33;73.48;100182.47;4090440;29;20035;-69
2021/04/28 00:16:44;;;;;;;23.25;13.60;;;8.40;99.90;;;8.30;72.76;100184.63;4090389;29;20035;-69
2021/04/28 00:18:49;;;;;;;19.15;13.43;;;8.40;99.90;;;8.34;72.99;100181.50;4090184;29;20495;-69
2021/04/28 00:20:51;;;;;;;22.10;13.52;;;8.50;99.90;;;8.34;73.18;100181.50;4090108;29;20090;-69
2021/04/28 00:22:52;;;;;;;23.20;14.60;;;8.40;99.90;;;8.33;73.34;100174.59;4090336;29;20056;-69
2021/04/28 00:24:53;;;;;;;18.48;13.38;;;8.50;99.90;;;8.24;73.67;100174.69;4090098;29;20559;-69
2021/04/28 00:26:54;;;;;;;22.48;13.43;;;8.40;99.90;;;8.24;73.95;100164.19;4090263;29;20063;-69
2021/04/28 00:28:55;;;;;;;18.15;12.73;;;8.40;99.90;;;8.19;73.20;100169.88;4090085;29;20148;-69
2021/04/28 00:30:56;;;;;;;26.05;13.63;;;8.40;99.90;;;8.21;74.01;100165.28;4089878;29;20368;-69
2021/04/28 00:32:57;;;;;;;20.25;13.20;;;8.30;99.90;;;8.22;73.52;100171.38;4090002;29;20035;-69
2021/04/28 00:34:58;;;;;;;19.67;13.43;;;8.30;99.90;;;8.26;72.64;100170.94;4090171;29;20028;-69
2021/04/28 00:36:59;;;;;;;19.42;12.82;;;8.30;99.90;;;8.27;73.19;100164.69;4090030;29;20023;-69
2021/04/28 00:39:00;;;;;;;19.75;14.55;;;8.40;99.90;;;7.99;73.84;100157.09;4090156;29;20071;-69
2021/04/28 00:41:09;;;;;;;21.08;12.82;;;8.30;99.90;;;7.99;73.95;100143.97;4090196;29;20488;-69
2021/04/28 00:43:10;;;;;;;19.48;12.98;;;8.20;99.90;;;8.18;73.42;100152.47;4088582;29;20028;-69
2021/04/28 00:45:14;;;;;;;18.10;13.75;;;8.30;99.90;;;8.11;74.02;100153.25;4076727;29;20047;-69
2021/04/28 00:47:15;;;;;;;19.05;13.18;;;8.30;99.90;;;8.11;74.35;100140.13;4074025;29;20047;-69
2021/04/28 00:49:16;;;;;;;20.42;12.73;;;8.20;99.90;;;8.18;73.87;100147.22;4088577;29;20038;-69
2021/04/28 00:51:17;;;;;;;23.83;15.00;;;8.30;99.90;;;8.00;73.52;100124.63;4077708;29;20029;-69
2021/04/28 00:53:21;;;;;;;22.70;13.20;;;8.30;99.90;;;8.08;74.03;100153.56;4087149;29;20040;-69
2021/04/28 00:55:22;;;;;;;18.75;13.50;;;8.30;99.90;;;8.10;73.86;100143.72;4090006;29;20029;-69
2021/04/28 00:57:23;;;;;;;18.30;12.60;;;8.20;99.90;;;8.14;73.82;100137.19;4089808;29;20032;-69
2021/04/28 00:59:28;;;;;;;17.00;12.63;;;8.20;99.90;;;8.07;74.35;100136.97;4089673;29;20107;-68
2021/04/28 01:01:29;;;;;;;17.42;12.40;;;8.10;99.90;;;8.02;74.75;100146.28;4089535;29;20123;-71
2021/04/28 01:03:30;;;;;;;16.20;11.98;;;8.10;99.90;;;8.01;74.67;100139.38;4089368;29;20027;-70
2021/04/28 01:05:32;;;;;;;23.77;13.20;;;8.10;99.90;;;8.04;74.01;100136.44;4089689;29;20086;-69
2021/04/28 01:07:33;;;;;;;19.42;12.85;;;8.20;99.90;;;7.95;74.38;100126.88;4089729;29;20031;-69
2021/04/28 01:09:37;;;;;;;17.70;12.48;;;8.20;99.90;;;7.87;74.55;100129.44;4089394;29;20031;-69
2021/04/28 01:11:39;;;;;;;18.93;11.80;;;8.10;99.90;;;7.79;75.06;100117.91;4104003;29;20135;-69
2021/04/28 01:13:41;;;;;;;16.25;11.35;;;8.10;99.90;;;7.77;74.92;100101.47;4104272;29;20267;-69
2021/04/28 01:15:42;;;;;;;16.77;13.85;;;8.00;99.90;;;7.82;75.60;100122.84;4104331;29;20487;-69
2021/04/28 01:17:43;;;;;;;18.50;12.45;;;8.00;99.90;;;7.72;75.97;100127.38;4089448;29;20031;-69
2021/04/28 01:19:44;;;;;;;18.77;12.57;;;7.90;99.90;;;7.62;76.73;100117.94;4103661;28;20091;-69
2021/04/28 01:21:46;;;;;;;16.75;12.02;;;7.80;99.90;;;7.63;76.74;100114.34;4089556;29;20030;-69
2021/04/28 01:23:47;;;;;;;18.08;12.00;;;7.80;99.90;;;7.73;75.57;100118.53;4104137;29;20082;-69
2021/04/28 01:25:50;;;;;;;15.80;11.82;;;7.80;99.90;;;7.49;76.08;100115.72;4088171;29;20032;-69
2021/04/28 01:28:06;;;;;;;18.63;12.45;;;7.80;99.90;;;7.44;76.34;100112.72;4104120;29;20114;-69
2021/04/28 01:30:11;;;;;;;15.82;12.30;;;7.70;99.90;;;7.22;77.13;100123.66;4089430;29;20031;-68
2021/04/28 01:32:17;;;;;;;17.73;11.98;;;7.50;99.90;;;7.26;77.37;100118.97;4089040;29;20105;-69
2021/04/28 01:34:19;;;;;;;16.40;11.48;;;7.50;99.90;;;7.22;77.76;100113.19;4103461;29;20114;-68
2021/04/28 01:36:24;;;;;;;16.60;12.30;;;7.50;99.90;;;7.30;77.94;100110.63;4088136;29;20023;-69
2021/04/28 01:38:30;;;;;;;18.55;11.50;;;7.40;99.90;;;7.22;77.47;100115.81;4103916;29;20076;-68
2021/04/28 01:40:32;;;;;;;15.48;12.07;;;7.40;99.90;;;7.27;76.80;100110.91;4103554;29;20099;-69
2021/04/28 01:42:33;;;;;;;16.60;12.18;;;7.40;99.90;;;7.21;77.52;100106.28;4089239;29;20365;-69
2021/04/28 01:44:35;;;;;;;16.55;12.30;;;7.40;99.90;;;7.00;78.25;100100.50;4080790;29;20082;-69
2021/04/28 01:46:36;;;;;;;14.73;11.73;;;7.30;99.90;;;6.91;78.20;100091.72;4087873;29;20032;-69
2021/04/28 01:48:42;;;;;;;17.92;12.27;;;7.20;99.90;;;6.86;78.56;100109.72;4087522;29;20040;-69
2021/04/28 01:50:48;;;;;;;19.33;13.07;;;7.20;99.90;;;6.73;78.32;100108.38;4077195;29;20088;-69
2021/04/28 01:52:49;;;;;;;18.35;12.13;;;7.20;99.90;;;6.47;79.18;100103.03;4082517;29;20035;-69
2021/04/28 01:54:50;;;;;;;24.77;14.13;;;7.00;99.90;;;6.47;79.02;100098.59;4088886;29;20031;-69
2021/04/28 01:56:53;;;;;;;20.63;13.77;;;6.90;99.90;;;6.36;79.61;100098.78;4103360;29;20058;-69
2021/04/28 01:58:56;;;;;;;17.17;13.00;;;6.80;99.90;;;6.50;79.00;100102.72;4103500;29;20030;-69
2021/04/28 02:00:58;;;;;;;18.73;11.95;;;6.80;99.90;;;6.48;79.53;100110.72;4103560;29;20035;-69
2021/04/28 02:03:00;;;;;;;21.35;12.55;;;6.80;99.90;;;6.46;79.75;100109.22;4103234;29;20050;-69
2021/04/28 02:05:05;;;;;;;24.10;12.50;;;6.70;99.90;;;6.42;80.10;100110.50;4088889;29;20447;-69
2021/04/28 02:07:06;;;;;;;;;;;6.70;99.90;;;6.20;79.80;100100.38;4089314;29;20499;-69
2021/04/28 02:09:07;;;;;;;17.92;11.65;;;6.60;99.90;;;6.13;80.43;100106.19;4088887;29;19910;-69
2021/04/28 02:11:08;;;;;;;22.10;12.90;;;6.60;99.90;;;6.27;79.78;100101.47;4088578;29;20036;-69
2021/04/28 02:13:13;;;;;;;16.45;11.43;;;6.50;99.90;;;6.33;78.99;100108.75;4103391;29;20030;-69
2021/04/28 02:15:15;;;;;;;17.13;12.25;;;6.60;99.90;;;6.37;79.34;100100.44;4103192;29;20519;-69
2021/04/28 02:17:19;;;;;;;19.60;12.52;;;6.60;99.90;;;6.27;79.95;100107.53;4103237;29;20097;-69
2021/04/28 02:19:20;;;;;;;18.83;12.23;;;6.50;99.90;;;6.20;80.02;100113.47;4088211;29;20063;-69
2021/04/28 02:21:21;;;;;;;15.07;11.18;;;6.50;99.90;;;6.23;79.87;100113.19;4103344;29;20065;-69
2021/04/28 02:23:24;;;;;;;19.15;11.48;;;6.50;99.90;;;6.22;79.80;100117.59;4088510;29;20110;-69
2021/04/28 02:25:24;;;;;;;17.77;12.48;;;6.50;99.90;;;6.21;79.41;100113.34;4103130;29;20034;-69
2021/04/28 02:27:25;;;;;;;16.05;12.25;;;6.50;99.90;;;6.30;78.23;100115.06;4088459;29;20024;-69
2021/04/28 02:29:26;;;;;;;20.50;12.50;;;6.50;99.90;;;6.32;78.81;100112.31;4088479;29;20151;-69
2021/04/28 02:31:27;;;;;;;18.33;12.23;;;6.50;99.90;;;6.55;77.68;100111.81;4087759;29;20427;-69
2021/04/28 02:33:29;;;;;;;15.55;11.50;;;6.60;99.90;;;6.38;78.10;100106.50;4087835;29;20059;-69
2021/04/28 02:35:30;;;;;;;19.70;12.32;;;6.50;99.90;;;6.50;77.43;100110.59;4102922;29;20028;-69
2021/04/28 02:37:32;;;;;;;16.88;11.05;;;6.60;99.90;;;6.32;77.89;100117.56;4088517;29;20032;-69
2021/04/28 02:39:41;;;;;;;19.92;12.25;;;6.60;99.90;;;6.38;77.99;100099.47;4088508;29;20114;-69
2021/04/28 02:41:45;;;;;;;16.38;12.02;;;6.60;99.90;;;6.41;77.62;100101.81;4102992;29;20031;-69
2021/04/28 02:43:46;;;;;;;16.90;12.17;;;6.60;99.90;;;6.50;77.11;100105.34;4086147;29;20035;-69
2021/04/28 02:45:50;;;;;;;18.98;12.07;;;6.60;99.90;;;6.45;77.28;100097.13;4072385;29;20292;-69
2021/04/28 02:47:52;;;;;;;18.85;13.23;;;6.60;99.90;;;6.58;77.00;100092.34;4086861;29;20032;-69
2021/04/28 02:49:54;;;;;;;18.50;12.27;;;6.60;99.90;;;6.61;77.03;100100.72;4089922;29;20174;-69
2021/04/28 02:51:56;;;;;;;20.05;12.13;;;6.70;99.90;;;6.74;76.20;100108.25;4075395;29;20032;-69
2021/04/28 02:53:59;;;;;;;14.48;10.52;;;6.80;99.90;;;6.64;77.15;100091.75;4102930;29;20031;-69
2021/04/28 02:56:01;;;;;;;18.40;12.30;;;6.80;99.90;;;6.66;76.54;100102.91;4102760;29;20051;-69
2021/04/28 02:58:03;;;;;;;15.35;10.82;;;6.80;99.90;;;6.51;77.07;100094.72;4088016;29;20264;-69
2021/04/28 03:00:09;;;;;;;16.88;10.82;;;6.70;99.90;;;6.48;77.00;100105.47;4088003;29;20027;-69
2021/04/28 03:02:10;;;;;;;17.92;11.75;;;6.70;99.90;;;6.50;77.51;100095.69;4088351;29;20674;-69
2021/04/28 03:04:13;;;;;;;19.55;11.68;;;6.70;99.90;;;6.51;76.92;100101.78;4087903;29;20035;-69
2021/04/28 03:06:16;;;;;;;19.08;12.73;;;6.70;99.90;;;6.45;77.79;100097.91;4102510;29;20023;-68
2021/04/28 03:08:21;;;;;;;17.77;12.25;;;6.70;99.90;;;6.47;77.22;100077.66;4102824;29;20031;-69
2021/04/28 03:10:23;;;;;;;17.48;11.35;;;6.60;99.90;;;6.49;77.50;100094.03;4088180;29;20118;-69
2021/04/28 03:12:24;;;;;;;21.85;12.30;;;6.70;99.90;;;6.37;77.21;100092.59;4087990;29;20055;-69
2021/04/28 03:14:25;;;;;;;18.42;11.75;;;6.60;99.90;;;6.48;77.72;100092.38;4102611;29;20026;-69
2021/04/28 03:16:27;;;;;;;18.67;12.32;;;6.60;99.90;;;6.53;77.60;100095.41;4088233;29;20094;-69
2021/04/28 03:18:28;;;;;;;17.58;11.98;;;6.70;99.90;;;6.48;78.34;100091.59;4102591;29;20031;-69
2021/04/28 03:20:30;;;;;;;14.88;12.50;;;6.60;99.90;;;6.47;78.40;100096.00;4088009;29;20036;-69
2021/04/28 03:22:31;;;;;;;19.25;13.25;;;6.60;99.90;;;6.52;77.73;100099.00;4102543;29;20024;-69
2021/04/28 03:24:32;;;;;;;17.05;12.10;;;6.60;99.90;;;6.50;77.54;100094.88;4102418;29;20091;-68
2021/04/28 03:26:34;;;;;;;21.75;12.27;;;6.70;99.90;;;6.39;78.37;100095.06;4087986;29;20115;-69
2021/04/28 03:28:35;;;;;;;15.38;11.80;;;6.70;99.90;;;6.42;78.48;100087.72;4102582;29;20074;-69
2021/04/28 03:30:36;;;;;;;17.67;12.40;;;6.60;99.90;;;6.27;78.62;100089.19;4087936;29;20028;-69
2021/04/28 03:32:37;;;;;;;15.63;12.02;;;6.50;99.90;;;6.41;78.16;100086.09;4087902;29;20029;-69
2021/04/28 03:34:38;;;;;;;18.27;12.20;;;6.60;99.90;;;6.18;79.06;100081.38;4086634;29;20103;-69
2021/04/28 03:36:39;;;;;;;16.70;12.93;;;6.50;99.90;;;6.32;79.34;100086.97;4086753;29;20070;-69
2021/04/28 03:38:40;;;;;;;20.25;14.55;;;6.50;99.90;;;6.31;79.58;100084.47;4087904;29;20091;-69
2021/04/28 03:40:41;;;;;;;23.38;13.43;;;6.50;99.90;;;6.19;79.92;100080.38;4087885;29;20032;-69
2021/04/28 03:42:42;;;;;;;22.25;14.32;;;6.50;99.90;;;6.06;80.98;100065.81;4087931;29;20020;-69
2021/04/28 03:44:43;;;;;;;21.42;15.15;;;6.40;99.90;;;6.12;81.13;100073.09;4081356;29;20055;-69
2021/04/28 03:46:44;;;;;;;20.17;13.68;;;6.30;99.90;;;6.06;81.64;100076.28;4089551;29;20028;-69
2021/04/28 03:48:45;;;;;;;19.52;14.50;;;6.30;99.90;;;6.07;82.03;100080.56;4077993;29;20039;-69
2021/04/28 03:50:46;;;;;;;20.40;15.10;;;6.30;99.90;;;6.08;82.16;100068.31;4080849;29;20496;-69
2021/04/28 03:52:47;;;;;;;24.35;14.25;;;6.30;99.90;;;6.07;83.05;100071.88;4089694;29;20039;-69
2021/04/28 03:54:48;;;;;;;22.23;14.93;;;6.30;99.90;;;6.12;82.89;100080.16;4075144;29;20024;-68
2021/04/28 03:56:49;;;;;;;20.02;14.52;;;6.30;99.90;;;6.16;83.02;100073.66;4075044;29;20028;-69
2021/04/28 03:58:50;;;;;;;19.35;15.05;;;6.30;99.90;;;6.19;83.89;100081.22;4075001;29;20071;-69
2021/04/28 04:00:51;;;;;;;21.02;15.00;;;6.40;99.90;;;6.33;82.86;100078.13;4089389;29;20534;-69
2021/04/28 04:02:52;;;;;;;22.95;15.05;;;6.40;99.90;;;6.31;82.79;100080.06;4074494;29;20331;-69
2021/04/28 04:04:52;;;;;;;23.83;14.80;;;6.40;99.90;;;6.17;84.00;100077.09;4074665;29;20562;-68
2021/04/28 04:06:53;;;;;;;21.77;15.73;;;6.40;99.90;;;6.03;84.49;100075.78;4074958;29;20032;-69
2021/04/28 04:08:54;;;;;;;23.10;15.77;;;6.30;99.90;;;6.04;85.32;100075.63;4074910;29;20059;-69
2021/04/28 04:10:55;;;;;;;26.08;16.80;;;6.40;99.90;;;6.20;85.04;100077.63;4074713;29;20035;-69
2021/04/28 04:12:56;;;;;;;24.67;15.32;;;6.40;99.90;;;6.09;84.75;100080.44;4074666;29;20031;-69
2021/04/28 04:14:57;;;;;;;24.33;15.50;;;6.40;99.90;;;6.02;85.68;100084.59;4074852;29;20024;-69
2021/04/28 04:16:58;;;;;;;24.85;16.05;;;6.30;99.90;;;6.01;85.58;100078.53;4074748;29;20036;-69
2021/04/28 04:18:58;;;;;;;22.27;17.20;;;6.30;99.90;;;6.03;86.22;100079.19;4074494;29;20059;-68
2021/04/28 04:21:00;;;;;;;24.45;17.33;;;6.30;99.90;;;5.93;85.91;100077.59;4074554;29;20035;-69
2021/04/28 04:23:01;;;;;;;24.55;16.48;;;6.30;99.90;;;6.17;85.78;100077.94;4074504;29;20028;-69
2021/04/28 04:25:05;;;;;;;21.45;16.77;;;6.30;99.90;;;6.12;85.80;100054.78;4089206;29;20031;-69
2021/04/28 04:27:06;;;;;;;25.55;18.05;;;6.40;99.90;;;6.12;85.90;100072.31;4088991;29;20082;-69
2021/04/28 04:29:07;;;;;;;20.17;15.20;;;6.30;99.90;;;6.16;86.23;100073.66;4074596;29;20047;-69
2021/04/28 04:31:08;;;;;;;24.65;16.52;;;6.30;99.90;;;6.31;85.33;100066.97;4074502;29;20036;-69
2021/04/28 04:33:10;;;;;;;22.70;15.80;;;6.40;99.90;;;6.53;84.44;100066.59;4074487;29;20039;-69
2021/04/28 04:35:11;;;;;;;22.83;16.27;;;6.50;99.90;;;6.56;84.01;100073.31;4074636;29;20099;-69
2021/04/28 04:37:12;;;;;;;24.38;16.88;;;6.60;99.90;;;6.39;84.53;100061.81;4074347;29;20028;-69
2021/04/28 04:39:13;;;;;;;20.35;15.05;;;6.60;99.90;;;6.42;85.28;100066.75;4074690;29;20392;-69
2021/04/28 04:41:14;;;;;;;20.23;15.93;;;6.60;99.90;;;6.32;85.21;100054.69;4074433;29;20040;-69
2021/04/28 04:43:15;;;;;;;22.55;15.90;;;6.60;99.90;;;6.33;85.60;100070.25;4099747;29;20027;-69
2021/04/28 04:45:16;;;;;;;28.67;16.70;;;6.60;99.90;;;6.47;84.25;100064.56;4076118;29;20052;-68
2021/04/28 04:47:17;;;;;;;23.15;16.38;;;6.60;99.90;;;6.41;84.64;100061.69;4074462;29;20391;-69
2021/04/28 04:49:18;;;;;;;26.20;15.60;;;6.60;99.90;;;6.54;84.34;100070.03;4074152;29;20507;-69
2021/04/28 04:51:19;;;;;;;24.17;14.93;;;6.70;99.90;;;6.55;83.05;100067.25;4078199;29;20025;-69
2021/04/28 04:53:20;;;;;;;20.63;14.07;;;6.70;99.90;;;6.47;83.39;100066.34;4087418;29;20110;-69
2021/04/28 04:55:22;;;;;;;20.92;14.27;;;6.70;99.90;;;6.58;82.43;100060.91;4088992;29;20030;-69
2021/04/28 04:57:23;;;;;;;19.98;13.98;;;6.80;99.90;;;6.63;81.36;100063.91;4090099;29;20468;-69
2021/04/28 04:59:25;;;;;;;19.83;13.93;;;6.80;99.90;;;6.60;81.61;100074.69;4104426;29;20106;-69
2021/04/28 05:01:26;;;;;;;24.25;15.77;;;6.70;99.90;;;6.55;81.51;100058.56;4089690;29;20032;-69
2021/04/28 05:03:27;;;;;;;18.70;14.65;;;6.70;99.90;;;6.40;82.61;100068.72;4089893;29;20465;-69
2021/04/28 05:05:28;;;;;;;21.92;13.25;;;6.70;99.90;;;6.52;81.30;100057.06;4089795;29;20462;-69
2021/04/28 05:07:29;;;;;;;21.52;13.82;;;6.80;99.90;;;6.53;81.28;100063.97;4089853;29;20036;-69
2021/04/28 05:09:29;;;;;;;21.45;14.50;;;6.70;99.90;;;6.61;81.34;100065.84;4089620;29;20127;-69
2021/04/28 05:11:30;;;;;;;17.98;13.18;;;6.80;99.90;;;6.62;80.77;100057.84;4089616;29;20042;-69
2021/04/28 05:13:31;;;;;;;19.80;13.48;;;6.80;99.90;;;6.72;80.25;100070.88;4089729;29;20035;-69
2021/04/28 05:15:32;;;;;;;22.33;14.35;;;6.90;99.90;;;6.57;80.67;100044.34;4089660;29;20504;-68
2021/04/28 05:17:33;;;;;;;19.73;13.25;;;7.00;99.90;;;6.74;80.95;100065.50;4087985;29;20472;-69
2021/04/28 05:19:34;;;;;;;20.00;13.73;;;7.00;99.90;;;6.82;79.94;100073.44;4088823;29;20104;-69
2021/04/28 05:21:35;;;;;;;20.55;12.50;;;7.00;99.90;;;6.91;80.27;100073.38;4089712;29;20091;-69
2021/04/28 05:23:36;;;;;;;18.40;13.50;;;7.10;99.90;;;6.91;79.78;100070.75;4089597;29;20411;-69
2021/04/28 05:25:37;;;;;;;19.63;13.77;;;7.10;99.90;;;6.79;80.65;100063.25;4104179;29;20027;-69
2021/04/28 05:27:38;;;;;;;19.60;12.95;;;7.20;99.90;;;6.86;80.84;100065.13;4089240;29;20414;-69
2021/04/28 05:29:39;;;;;;;19.98;13.88;;;7.20;99.90;;;6.68;81.45;100049.41;4083362;29;20044;-69
2021/04/28 05:31:40;;;;;;;22.10;13.18;;;7.20;99.90;;;6.93;80.61;100071.41;4082378;29;20068;-69
2021/04/28 05:33:41;;;;;;;21.58;13.10;;;7.20;99.90;;;6.92;81.00;100063.72;4080178;29;20396;-69
2021/04/28 05:35:42;;;;;;;22.70;13.45;;;7.30;99.90;;;6.88;80.99;100062.34;4073322;29;20110;-70
2021/04/28 05:37:43;;;;;;;20.92;13.55;;;7.30;99.90;;;7.03;81.43;100069.56;4073726;29;20020;-70
2021/04/28 05:39:47;;;;;;;18.83;14.50;;;7.30;99.90;;;7.06;81.68;100076.28;4073445;29;20036;-70
2021/04/28 05:41:48;;;;;;;;;;;7.40;99.90;;;7.08;82.27;100062.06;4073603;29;20036;-70
2021/04/28 05:43:49;;;;;;;27.02;13.70;;;7.40;99.90;;;7.27;80.63;100062.88;4085874;29;20369;-70
2021/04/28 05:45:51;;;;;;;20.85;13.73;;;7.60;99.90;;;7.37;81.19;100068.88;4073374;29;20036;-70
2021/04/28 05:47:52;;;;;;;21.60;13.82;;;7.60;99.90;;;7.39;81.77;100073.00;4072659;29;20481;-70
2021/04/28 05:49:53;;;;;;;22.08;14.30;;;7.70;99.90;;;7.44;82.05;100073.34;4082129;29;20046;-70
2021/04/28 05:51:54;;;;;;;18.08;13.00;;;7.80;99.90;;;7.57;80.95;100068.53;4073020;29;20048;-70
2021/04/28 05:53:55;;;;;;;17.77;13.32;;;7.90;99.90;;;7.73;80.02;100065.22;4073313;29;20463;-70
2021/04/28 05:56:01;;;;;;;18.88;12.65;;;8.10;99.90;;;7.79;80.15;100062.75;4072928;29;20028;-70
2021/04/28 05:58:04;;;;;;;15.30;12.30;;;8.20;99.90;;;7.74;80.21;100056.34;4087749;29;20054;-70
2021/04/28 06:00:13;;;;;;;22.38;12.98;;;8.20;99.90;;;7.89;79.98;100070.53;4072885;29;20028;-70
2021/04/28 06:02:14;;;;;;;19.60;13.43;;;8.30;99.90;;;8.03;80.61;100067.38;4073001;29;20395;-70
2021/04/28 06:04:16;;;;;;;23.60;14.05;;;8.40;99.90;;;8.02;79.98;100064.88;4071116;29;20031;-69
2021/04/28 06:06:17;;;;;;;23.60;12.55;;;8.50;99.90;;;7.97;79.92;100056.66;4074105;29;20063;-69
2021/04/28 06:08:18;;;;;;;22.58;13.25;;;8.60;99.90;;;8.24;79.08;100072.22;4084071;29;20028;-69
2021/04/28 06:10:20;;;;;;;21.85;12.45;;;8.70;99.90;;;8.27;79.37;100080.63;4079151;29;20376;-69
2021/04/28 06:12:21;;;;;;;16.85;12.38;;;8.80;99.90;;;8.35;78.88;100077.22;4088135;29;20031;-69
2021/04/28 06:14:22;;;;;;;17.48;13.10;;;8.80;99.90;;;8.56;78.47;100075.00;4087805;29;20028;-69
2021/04/28 06:16:24;;;;;;;18.77;13.15;;;8.90;99.90;;;8.71;77.49;100072.59;4088229;29;20368;-69
2021/04/28 06:18:25;;;;;;;23.48;12.90;;;9.10;99.90;;;8.78;77.47;100069.13;4102569;29;20067;-69
2021/04/28 06:20:26;;;;;;;17.92;12.32;;;9.20;99.90;;;8.82;77.21;100059.13;4087881;29;20028;-69
2021/04/28 06:22:27;;;;;;;17.10;11.55;;;9.30;99.90;;;9.05;76.90;100081.19;4088068;29;20039;-70
2021/04/28 06:24:28;;;;;;;19.65;11.88;;;9.40;99.90;;;9.03;76.97;100067.38;4102768;29;20426;-69
2021/04/28 06:26:29;;;;;;;18.13;11.73;;;9.50;99.90;;;9.11;77.15;100074.47;4085720;29;20039;-68
2021/04/28 06:28:30;;;;;;;18.15;11.77;;;9.60;99.90;;;9.02;78.06;100080.72;4081030;29;20397;-69
2021/04/28 06:30:31;;;;;;;18.05;11.52;;;9.60;99.90;;;9.03;78.65;100077.09;4075132;29;20487;-69
2021/04/28 06:32:32;;;;;;;18.33;11.63;;;9.60;99.90;;;8.99;77.85;100075.78;4087614;29;20032;-68
2021/04/28 06:34:33;;;;;;;19.80;12.65;;;9.70;99.90;;;8.88;78.80;100054.06;4087901;29;20032;-69
2021/04/28 06:36:35;;;;;;;18.48;11.30;;;9.70;99.90;;;9.19;78.22;100074.47;4087931;29;20030;-69
2021/04/28 06:38:37;;;;;;;16.52;11.13;;;9.80;99.90;;;9.43;78.04;100077.13;4087901;29;20032;-69
2021/04/28 06:40:38;;;;;;;16.27;12.05;;;10.00;99.90;;;9.43;77.69;100074.50;4086359;29;20040;-68
2021/04/28 06:42:40;;;;;;;15.02;10.57;;;10.20;99.90;;;9.35;78.16;100079.72;4087716;29;20531;-68
2021/04/28 06:44:41;;;;;;;18.02;11.73;;;10.30;99.90;;;9.50;78.50;100086.00;4078337;29;20055;-70
2021/04/28 06:46:42;;;;;;;16.27;11.43;;;10.30;99.90;;;9.57;78.35;100089.63;4086628;29;20062;-69
2021/04/28 06:48:43;;;;;;;17.63;11.23;;;10.20;99.90;;;9.34;78.23;100101.81;4086790;29;20023;-70
2021/04/28 06:50:44;;;;;;;20.08;10.68;;;10.20;99.90;;;9.09;78.01;100093.03;4075780;29;20039;-70
2021/04/28 06:52:45;;;;;;;15.85;10.30;;;10.10;99.90;;;9.03;79.21;100090.22;4081220;29;20028;-69
2021/04/28 06:54:46;;;;;;;14.25;10.60;;;9.90;99.90;;;9.21;78.98;100098.81;4088038;29;20032;-70
2021/04/28 06:56:47;;;;;;;16.00;11.60;;;9.90;99.90;;;9.06;79.39;100087.28;4087971;29;20091;-70
2021/04/28 06:58:50;;;;;;;18.63;10.88;;;9.90;99.90;;;9.13;79.03;100088.28;4088180;29;20039;-70
2021/04/28 07:00:51;;;;;;;14.15;9.95;;;9.80;99.90;;;9.10;79.91;100093.88;4087871;29;20060;-70
2021/04/28 07:02:53;;;;;;;12.32;8.93;;;9.80;99.90;;;9.21;78.82;100096.19;4087785;29;20036;-70
2021/04/28 07:04:54;;;;;;;17.75;9.75;;;9.80;99.90;;;9.33;78.34;100094.88;4102381;29;20106;-70
2021/04/28 07:06:55;;;;;;;15.40;10.38;;;9.80;99.90;;;9.42;78.99;100089.47;4087921;29;20042;-70
2021/04/28 07:08:56;;;;;;;17.38;9.10;;;9.90;99.90;;;9.34;79.21;100093.91;4102592;29;20032;-70
2021/04/28 07:10:57;;;;;;;14.13;8.50;;;10.00;99.90;;;9.44;79.28;100102.44;4087555;29;20083;-69
2021/04/28 07:12:58;;;;;;;16.25;8.40;;;10.00;99.90;;;9.33;79.89;100089.63;4087817;29;20080;-69
2021/04/28 07:14:59;;;;;;;10.70;7.55;;;10.00;99.90;;;9.56;79.67;100095.88;4087784;29;20027;-69
2021/04/28 07:17:00;;;;;;;14.05;8.32;;;10.10;99.90;;;9.68;80.05;100083.19;4087989;29;20444;-69
2021/04/28 07:19:01;;;;;;;15.30;8.20;;;10.20;99.90;;;9.53;78.78;100079.59;4089980;29;20039;-69
2021/04/28 07:21:04;;;;;;;14.77;7.30;;;10.30;99.90;;;9.52;79.35;100099.84;4091081;29;20024;-69
2021/04/28 07:23:05;;;;;;;13.18;6.97;;;10.30;99.90;;;9.57;78.72;100087.00;4091237;29;20264;-69
2021/04/28 07:25:07;;;;;;;15.77;8.02;;;10.30;99.90;;;9.72;78.64;100079.22;4091204;29;20040;-69
2021/04/28 07:27:08;;;;;;;12.02;7.10;;;10.40;99.90;;;9.84;79.32;100094.53;4105552;29;20209;-70
2021/04/28 07:29:09;;;;;;;13.35;7.38;;;10.50;99.90;;;9.69;79.70;100092.75;4090820;29;20148;-69
2021/04/28 07:31:09;;;;;;;14.63;7.07;;;10.60;99.90;;;9.75;79.44;100084.16;4090830;29;20031;-69
2021/04/28 07:33:10;;;;;;;11.50;6.57;;;10.60;99.90;;;9.93;79.06;100085.63;4090259;29;20034;-69
2021/04/28 07:35:12;;;;;;;12.43;7.10;;;10.60;99.90;;;10.03;78.52;100091.50;4090706;29;20023;-69
2021/04/28 07:37:13;;;;;;;11.32;6.28;;;10.80;99.90;;;10.20;78.02;100088.88;4090488;29;20056;-69
2021/04/28 07:39:14;;;;;;;11.70;6.25;;;10.90;99.90;;;10.25;76.83;100087.38;4090905;29;20031;-69
2021/04/28 07:41:15;;;;;;;10.38;6.22;;;11.00;99.90;;;10.28;77.25;100091.47;4090901;29;20517;-69
2021/04/28 07:43:16;;;;;;;10.77;5.75;;;11.30;99.90;;;10.36;76.95;100092.28;4090687;29;20488;-69
2021/04/28 07:45:19;;;;;;;10.05;5.97;;;11.40;99.90;;;10.69;76.17;100092.16;4076522;29;20048;-69
2021/04/28 07:47:20;;;;;;;10.55;6.60;;;11.60;99.90;;;10.75;75.83;100089.63;4075235;29;20436;-69
2021/04/28 07:49:21;;;;;;;10.80;5.88;;;11.80;99.90;;;10.81;75.17;100088.94;4074848;29;20029;-69
2021/04/28 07:51:22;;;;;;;10.27;6.15;;;12.00;99.90;;;11.10;73.97;100093.56;4078527;29;20043;-69
2021/04/28 07:53:23;;;;;;;8.73;5.00;;;12.30;99.90;;;11.05;72.67;100091.44;4088571;29;20023;-69
2021/04/28 07:55:24;;;;;;;7.70;5.80;;;12.40;99.90;;;11.23;73.48;100091.16;4090811;29;20064;-69
2021/04/28 07:57:25;;;;;;;7.05;4.47;;;12.50;99.90;;;11.19;71.81;100083.78;4090794;29;20047;-69
2021/04/28 07:59:26;;;;;;;15.65;5.10;;;12.60;99.90;;;11.16;73.04;100073.56;4105402;29;20031;-69
2021/04/28 08:01:27;;;;;;;10.23;4.75;;;12.60;99.90;;;11.23;72.37;100080.59;4105176;29;20075;-69
2021/04/28 08:03:28;;;;;;;11.13;4.07;;;12.50;99.90;;;11.23;72.27;100090.34;4090430;29;20040;-69
2021/04/28 08:05:29;;;;;;;6.47;4.50;;;12.50;99.90;;;11.25;72.76;100097.09;4090399;29;20555;-69
2021/04/28 08:07:30;;;;;;;6.05;4.53;;;12.50;99.90;;;11.31;71.82;100088.47;4090573;29;20055;-69
2021/04/28 08:09:31;;;;;;;8.63;4.57;;;12.50;99.90;;;11.41;70.74;100093.53;4105108;29;20031;-69
2021/04/28 08:11:32;;;;;;;9.63;4.53;;;12.70;99.90;;;11.47;70.64;100088.31;4090811;29;20032;-69
2021/04/28 08:13:33;;;;;;;8.40;4.38;;;12.80;99.90;;;11.40;70.96;100097.16;4090657;29;20028;-70
2021/04/28 08:15:35;;;;;;;8.30;4.05;;;12.90;99.90;;;11.56;71.72;100089.06;4090541;29;20071;-69
2021/04/28 08:17:38;;;;;;;9.52;4.45;;;12.90;99.90;;;11.90;70.32;100088.63;4090066;29;20492;-69
2021/04/28 08:19:39;;;;;;;9.23;4.60;;;13.00;99.90;;;11.99;69.70;100088.38;4105155;29;20031;-70
2021/04/28 08:21:41;;;;;;;9.02;4.30;;;13.10;99.90;;;11.98;70.07;100093.84;4090488;29;20098;-69
2021/04/28 08:23:42;;;;;;;7.97;3.88;;;13.10;99.90;;;11.78;70.69;100093.53;4090419;29;20051;-69
2021/04/28 08:25:43;;;;;;;7.13;3.97;;;13.10;99.90;;;11.53;68.93;100092.91;4090154;29;20582;-69